Time;durP1;ratioP1;P1;durP2;ratioP2;P2;SDS_P1;SDS_P2;PMS_P1;PMS_P2;Temp;Humidity;BMP_temperature;BMP_pressure;BME280_temperature;BME280_humidity;BME280_pressure;Samples;Min_cycle;Max_cycle;Signal;HPM_P1;HPM_P2
2022/10/30 00:01:23;;;;;;;;;;;20.50;98.50;;;;;;5153828;27;19923;-68
2022/10/30 00:03:48;;;;;;;;;;;21.20;98.80;;;;;;5173915;27;20359;-67
2022/10/30 00:06:14;;;;;;;;;;;20.70;98.60;;;;;;5154428;27;20429;-68
2022/10/30 00:08:40;;;;;;;;;;;20.50;98.40;;;;;;5173061;27;19922;-68
2022/10/30 00:11:06;;;;;;;;;;;20.50;98.20;;;;;;5175415;27;19973;-68
2022/10/30 00:13:31;;;;;;;;;;;20.60;98.40;;;;;;5174654;27;19970;-67
2022/10/30 00:15:57;;;;;;;;;;;20.50;98.30;;;;;;5153774;27;19974;-68
2022/10/30 00:18:23;;;;;;;;;;;20.50;98.30;;;;;;5147853;27;20375;-68
2022/10/30 00:20:48;;;;;;;;;;;20.50;98.40;;;;;;5149996;27;20353;-69
2022/10/30 00:23:14;;;;;;;;;;;20.30;98.20;;;;;;5142938;27;21976;-68
2022/10/30 00:25:40;;;;;;;;;;;20.70;98.40;;;;;;5179364;27;20379;-68
2022/10/30 00:28:05;;;;;;;;;;;20.60;98.10;;;;;;5150604;27;19923;-68
2022/10/30 00:30:31;;;;;;;;;;;20.30;98.00;;;;;;5105916;27;19923;-68
2022/10/30 00:32:57;;;;;;;;;;;20.30;98.20;;;;;;5123072;27;19934;-68
2022/10/30 00:35:22;;;;;;;;;;;20.50;98.00;;;;;;5140769;27;19974;-68
2022/10/30 00:37:48;;;;;;;;;;;20.40;98.20;;;;;;5139446;27;19927;-68
2022/10/30 00:40:14;;;;;;;;;;;20.50;98.10;;;;;;5158412;27;19923;-68
2022/10/30 00:42:40;;;;;;;;;;;20.50;98.20;;;;;;5139761;27;19931;-68
2022/10/30 00:45:06;;;;;;;;;;;20.30;97.90;;;;;;5127384;27;19946;-68
2022/10/30 00:47:33;;;;;;;;;;;20.40;98.00;;;;;;5122436;27;19923;-70
2022/10/30 00:50:03;;;;;;;;;;;20.40;98.10;;;;;;5140824;27;19930;-70
2022/10/30 00:52:30;;;;;;;;;;;20.60;97.90;;;;;;5142906;27;19922;-70
2022/10/30 00:54:56;;;;;;;;;;;20.60;98.20;;;;;;5142861;27;20292;-70
2022/10/30 00:57:22;;;;;;;;;;;20.50;98.10;;;;;;5160394;27;20029;-70
2022/10/30 00:59:47;;;;;;;;;;;20.60;97.90;;;;;;5127784;27;20392;-70
2022/10/30 01:02:13;;;;;;;;;;;20.20;97.90;;;;;;5122432;27;19931;-70
2022/10/30 01:04:39;;;;;;;;;;;20.40;98.10;;;;;;5139984;27;20375;-71
2022/10/30 01:07:06;;;;;;;;;;;20.60;97.90;;;;;;5122258;27;20297;-70
2022/10/30 01:09:31;;;;;;;;;;;20.50;98.10;;;;;;5105177;27;19923;-70
2022/10/30 01:11:57;;;;;;;;;;;20.40;98.00;;;;;;5131072;27;19976;-69
2022/10/30 01:14:22;;;;;;;;;;;20.40;98.00;;;;;;5176886;27;19933;-70
2022/10/30 01:16:51;;;;;;;;;;;20.60;98.20;;;;;;5159651;27;19922;-70
2022/10/30 01:19:17;;;;;;;;;;;20.60;97.50;;;;;;5155042;27;19933;-67
2022/10/30 01:21:51;;;;;;;;;;;20.40;97.90;;;;;;5177490;27;20033;-67
2022/10/30 01:24:35;;;;;;;;;;;20.40;97.40;;;;;;5139080;27;19977;-67
2022/10/30 01:27:20;;;;;;;;;;;20.40;97.50;;;;;;5138604;27;19929;-70
2022/10/30 01:29:45;;;;;;;;;;;20.50;97.40;;;;;;5138601;27;19931;-70
2022/10/30 01:32:11;;;;;;;;;;;20.40;97.90;;;;;;5137907;27;19924;-68
2022/10/30 01:34:36;;;;;;;;;;;20.60;98.00;;;;;;5138829;27;20299;-69
2022/10/30 01:37:04;;;;;;;;;;;20.40;97.90;;;;;;5138475;27;19923;-69
2022/10/30 01:39:31;;;;;;;;;;;20.40;98.00;;;;;;5136260;27;20017;-69
2022/10/30 01:41:57;;;;;;;;;;;20.50;98.00;;;;;;5141967;27;19923;-69
2022/10/30 01:44:27;;;;;;;;;;;20.40;97.90;;;;;;5142093;27;19923;-69
2022/10/30 01:47:05;;;;;;;;;;;20.40;97.40;;;;;;5124721;27;19973;-68
2022/10/30 01:49:31;;;;;;;;;;;20.30;97.30;;;;;;5157002;27;19966;-69
2022/10/30 01:51:59;;;;;;;;;;;20.50;98.00;;;;;;5159346;27;19926;-68
2022/10/30 01:54:34;;;;;;;;;;;20.50;97.40;;;;;;5158911;27;19919;-69
2022/10/30 01:57:02;;;;;;;;;;;20.60;97.40;;;;;;5146788;27;19946;-68
2022/10/30 01:59:47;;;;;;;;;;;20.50;98.00;;;;;;5128814;27;19919;-68
2022/10/30 02:02:12;;;;;;;;;;;20.50;97.40;;;;;;5120902;27;20010;-68
2022/10/30 02:04:38;;;;;;;;;;;21.00;98.10;;;;;;5121767;27;20044;-68
2022/10/30 02:07:04;;;;;;;;;;;20.30;98.00;;;;;;5137945;27;19923;-67
2022/10/30 02:09:29;;;;;;;;;;;20.60;98.00;;;;;;5120364;27;20018;-67
2022/10/30 02:11:55;;;;;;;;;;;20.40;97.90;;;;;;5121014;27;19923;-68
2022/10/30 02:14:23;;;;;;;;;;;20.30;97.90;;;;;;5138462;27;20351;-68
2022/10/30 02:16:49;;;;;;;;;;;20.30;97.90;;;;;;5137755;27;19977;-68
2022/10/30 02:19:15;;;;;;;;;;;20.50;97.80;;;;;;5138026;27;19958;-68
2022/10/30 02:21:40;;;;;;;;;;;20.20;97.60;;;;;;5137765;27;19923;-68
2022/10/30 02:24:06;;;;;;;;;;;20.30;97.80;;;;;;5120419;27;19942;-68
2022/10/30 02:26:32;;;;;;;;;;;20.10;97.60;;;;;;5137622;27;19923;-68
2022/10/30 02:28:57;;;;;;;;;;;22.60;98.40;;;;;;5137433;27;19923;-68
2022/10/30 02:31:23;;;;;;;;;;;20.10;97.70;;;;;;5158520;27;19970;-68
2022/10/30 02:33:48;;;;;;;;;;;20.30;97.80;;;;;;5156239;27;19923;-68
2022/10/30 02:36:14;;;;;;;;;;;20.30;97.60;;;;;;5137713;27;19923;-69
2022/10/30 02:38:40;;;;;;;;;;;20.30;97.60;;;;;;5137358;27;20292;-69
2022/10/30 02:41:06;;;;;;;;;;;20.20;97.80;;;;;;5137331;27;19923;-68
2022/10/30 02:43:31;;;;;;;;;;;20.20;97.60;;;;;;5139804;27;19922;-68
2022/10/30 02:45:57;;;;;;;;;;;20.20;97.50;;;;;;5158097;27;20264;-68
2022/10/30 02:48:23;;;;;;;;;;;20.50;97.80;;;;;;5161023;27;19933;-68
2022/10/30 02:50:48;;;;;;;;;;;19.90;97.60;;;;;;5155520;27;19927;-68
2022/10/30 02:53:14;;;;;;;;;;;20.10;97.70;;;;;;5137251;27;19926;-68
2022/10/30 02:55:39;;;;;;;;;;;20.20;97.70;;;;;;5140904;27;20010;-68
2022/10/30 02:58:05;;;;;;;;;;;20.20;97.70;;;;;;5156981;27;19923;-69
2022/10/30 03:00:31;;;;;;;;;;;20.20;97.70;;;;;;5176401;27;20014;-68
2022/10/30 03:02:57;;;;;;;;;;;20.40;97.70;;;;;;5176699;27;19971;-68
2022/10/30 03:05:22;;;;;;;;;;;20.10;97.40;;;;;;5141087;27;19977;-68
2022/10/30 03:07:48;;;;;;;;;;;19.70;97.30;;;;;;5120135;27;19962;-68
2022/10/30 03:10:14;;;;;;;;;;;20.20;97.50;;;;;;5116232;28;19976;-68
2022/10/30 03:12:39;;;;;;;;;;;20.10;97.60;;;;;;5134776;27;19968;-68
2022/10/30 03:15:05;;;;;;;;;;;20.30;97.60;;;;;;5143744;27;20022;-68
2022/10/30 03:17:31;;;;;;;;;;;20.30;97.50;;;;;;5153004;27;19930;-68
2022/10/30 03:19:56;;;;;;;;;;;20.10;97.60;;;;;;5154106;27;19930;-69
2022/10/30 03:22:22;;;;;;;;;;;20.20;97.80;;;;;;5138354;27;19924;-68
2022/10/30 03:24:48;;;;;;;;;;;20.30;97.50;;;;;;5137571;27;19923;-69
2022/10/30 03:27:13;;;;;;;;;;;20.10;97.40;;;;;;5124231;28;20399;-68
2022/10/30 03:29:39;;;;;;;;;;;20.60;97.70;;;;;;5116234;28;19944;-69
2022/10/30 03:32:07;;;;;;;;;;;20.60;97.80;;;;;;5133330;28;20014;-68
2022/10/30 03:34:33;;;;;;;;;;;20.20;97.40;;;;;;5131009;27;19923;-68
2022/10/30 03:36:58;;;;;;;;;;;20.40;97.40;;;;;;5116361;28;19924;-68
2022/10/30 03:39:24;;;;;;;;;;;20.10;97.30;;;;;;5148269;27;19923;-68
2022/10/30 03:41:50;;;;;;;;;;;20.20;97.30;;;;;;5153946;27;20010;-68
2022/10/30 03:44:15;;;;;;;;;;;20.30;97.60;;;;;;5152047;27;19931;-68
2022/10/30 03:46:41;;;;;;;;;;;20.40;97.40;;;;;;5153356;27;19991;-68
2022/10/30 03:49:06;;;;;;;;;;;20.40;97.30;;;;;;5136545;27;19924;-68
2022/10/30 03:51:32;;;;;;;;;;;20.20;97.30;;;;;;5155072;27;19968;-68
2022/10/30 03:53:58;;;;;;;;;;;20.30;97.30;;;;;;5153785;27;19930;-68
2022/10/30 03:56:23;;;;;;;;;;;20.00;97.20;;;;;;5154123;27;19927;-68
2022/10/30 03:58:49;;;;;;;;;;;20.40;97.30;;;;;;5158055;27;19975;-68
2022/10/30 04:01:14;;;;;;;;;;;20.00;97.20;;;;;;5157687;27;19930;-68
2022/10/30 04:03:40;;;;;;;;;;;20.10;97.20;;;;;;5152722;27;20300;-68
2022/10/30 04:06:06;;;;;;;;;;;20.50;97.30;;;;;;5136455;27;19927;-68
2022/10/30 04:08:32;;;;;;;;;;;20.10;97.20;;;;;;5139449;27;20057;-68
2022/10/30 04:10:58;;;;;;;;;;;20.40;97.30;;;;;;5123343;27;20393;-68
2022/10/30 04:13:23;;;;;;;;;;;20.60;97.60;;;;;;5138624;27;20321;-68
2022/10/30 04:15:49;;;;;;;;;;;20.30;97.20;;;;;;5142025;27;19930;-68
2022/10/30 04:18:15;;;;;;;;;;;20.30;97.40;;;;;;5143569;27;19937;-68
2022/10/30 04:20:41;;;;;;;;;;;20.00;97.20;;;;;;5143912;27;19982;-68
2022/10/30 04:23:07;;;;;;;;;;;20.20;97.20;;;;;;5160704;27;19927;-68
2022/10/30 04:25:33;;;;;;;;;;;20.30;97.20;;;;;;5159379;27;19967;-68
2022/10/30 04:27:58;;;;;;;;;;;20.20;97.50;;;;;;5123118;27;19923;-69
2022/10/30 04:30:26;;;;;;;;;;;20.50;97.30;;;;;;5173962;27;19923;-68
2022/10/30 04:32:52;;;;;;;;;;;20.40;97.30;;;;;;5179499;27;20351;-68
2022/10/30 04:35:18;;;;;;;;;;;20.20;97.20;;;;;;5160780;27;19923;-68
2022/10/30 04:38:00;;;;;;;;;;;20.10;97.20;;;;;;5159670;27;20329;-68
2022/10/30 04:40:26;;;;;;;;;;;20.10;97.30;;;;;;5160746;27;20026;-68
2022/10/30 04:42:52;;;;;;;;;;;20.10;97.20;;;;;;5143365;27;19923;-68
2022/10/30 04:45:18;;;;;;;;;;;20.10;97.20;;;;;;5141919;27;20291;-69
2022/10/30 04:47:43;;;;;;;;;;;20.30;97.20;;;;;;5166715;27;19929;-68
2022/10/30 04:50:09;;;;;;;;;;;20.30;97.20;;;;;;5179464;27;19926;-68
2022/10/30 04:52:35;;;;;;;;;;;20.00;97.20;;;;;;5143130;27;19923;-69
2022/10/30 04:55:01;;;;;;;;;;;20.10;97.20;;;;;;5159283;27;19923;-68
2022/10/30 04:57:26;;;;;;;;;;;20.10;97.20;;;;;;5138687;27;19927;-69
2022/10/30 04:59:52;;;;;;;;;;;20.20;97.30;;;;;;5122093;27;19975;-68
2022/10/30 05:02:20;;;;;;;;;;;20.10;97.20;;;;;;5141564;27;19948;-68
2022/10/30 05:04:46;;;;;;;;;;;20.10;97.10;;;;;;5141296;27;20345;-67
2022/10/30 05:07:12;;;;;;;;;;;20.30;97.50;;;;;;5129775;27;19930;-67
2022/10/30 05:09:37;;;;;;;;;;;20.30;97.50;;;;;;5133612;27;19923;-67
2022/10/30 05:12:03;;;;;;;;;;;22.00;97.80;;;;;;5139363;27;20395;-67
2022/10/30 05:14:29;;;;;;;;;;;20.20;97.50;;;;;;5147512;27;20411;-67
2022/10/30 05:16:55;;;;;;;;;;;20.30;97.60;;;;;;5157180;27;19923;-67
2022/10/30 05:19:20;;;;;;;;;;;20.00;97.50;;;;;;5121710;27;19967;-67
2022/10/30 05:21:46;;;;;;;;;;;20.20;97.40;;;;;;5157959;27;19926;-68
2022/10/30 05:24:12;;;;;;;;;;;20.70;97.70;;;;;;5178103;27;19930;-68
2022/10/30 05:26:37;;;;;;;;;;;20.10;97.30;;;;;;5157949;27;19922;-68
2022/10/30 05:29:03;;;;;;;;;;;20.30;97.40;;;;;;5178587;27;19923;-68
2022/10/30 05:31:28;;;;;;;;;;;20.20;97.40;;;;;;5159393;27;19930;-68
2022/10/30 05:33:54;;;;;;;;;;;20.20;97.40;;;;;;5142746;27;19962;-67
2022/10/30 05:36:20;;;;;;;;;;;20.20;97.70;;;;;;5178235;27;19949;-68
2022/10/30 05:38:45;;;;;;;;;;;20.30;97.60;;;;;;5139269;27;19926;-68
2022/10/30 05:41:11;;;;;;;;;;;20.20;97.60;;;;;;5178126;27;20363;-67
2022/10/30 05:43:37;;;;;;;;;;;20.20;97.60;;;;;;5178034;27;19961;-67
2022/10/30 05:46:02;;;;;;;;;;;20.50;97.50;;;;;;5158142;27;20348;-67
2022/10/30 05:48:28;;;;;;;;;;;20.30;97.40;;;;;;5137399;27;20436;-67
2022/10/30 05:50:54;;;;;;;;;;;20.20;97.40;;;;;;5138273;27;19930;-68
2022/10/30 05:53:20;;;;;;;;;;;20.30;97.60;;;;;;5121053;27;20368;-68
2022/10/30 05:55:45;;;;;;;;;;;20.10;97.50;;;;;;5121614;27;20018;-68
2022/10/30 05:58:11;;;;;;;;;;;20.30;97.40;;;;;;5121995;27;19930;-68
2022/10/30 06:00:39;;;;;;;;;;;20.10;97.60;;;;;;5138385;27;20017;-68
2022/10/30 06:03:05;;;;;;;;;;;20.10;97.30;;;;;;5171290;27;19922;-68
2022/10/30 06:05:31;;;;;;;;;;;20.10;97.30;;;;;;5177413;27;19923;-68
2022/10/30 06:07:57;;;;;;;;;;;20.20;97.40;;;;;;5140521;27;20329;-67
2022/10/30 06:10:23;;;;;;;;;;;20.20;97.30;;;;;;5156281;27;19930;-68
2022/10/30 06:12:52;;;;;;;;;;;20.10;97.30;;;;;;5175203;27;19929;-67
2022/10/30 06:15:18;;;;;;;;;;;20.10;96.90;;;;;;5177335;27;19923;-67
2022/10/30 06:17:44;;;;;;;;;;;20.30;97.40;;;;;;5175012;27;19937;-67
2022/10/30 06:20:09;;;;;;;;;;;20.40;97.50;;;;;;5168999;27;20007;-67
2022/10/30 06:22:35;;;;;;;;;;;20.30;97.40;;;;;;5139336;27;20356;-67
2022/10/30 06:25:00;;;;;;;;;;;20.30;97.40;;;;;;5176973;27;20021;-67
2022/10/30 06:27:26;;;;;;;;;;;20.10;97.40;;;;;;5156830;27;20009;-67
2022/10/30 06:29:53;;;;;;;;;;;20.10;97.40;;;;;;5132498;27;19929;-67
2022/10/30 06:32:19;;;;;;;;;;;20.10;97.40;;;;;;5157307;27;19923;-67
2022/10/30 06:34:45;;;;;;;;;;;20.30;97.50;;;;;;5145741;27;19925;-68
2022/10/30 06:37:10;;;;;;;;;;;20.30;97.40;;;;;;5120541;27;19939;-68
2022/10/30 06:39:36;;;;;;;;;;;20.40;97.50;;;;;;5155509;27;20017;-68
2022/10/30 06:42:02;;;;;;;;;;;20.40;97.30;;;;;;5173771;27;19926;-68
2022/10/30 06:44:27;;;;;;;;;;;20.10;97.20;;;;;;5176445;27;19929;-68
2022/10/30 06:46:53;;;;;;;;;;;20.30;97.50;;;;;;5140463;27;19919;-67
2022/10/30 06:49:19;;;;;;;;;;;20.40;97.50;;;;;;5157911;27;20311;-67
2022/10/30 06:51:44;;;;;;;;;;;20.40;97.30;;;;;;5156235;27;19923;-67
2022/10/30 06:54:10;;;;;;;;;;;20.10;97.40;;;;;;5138528;27;20325;-67
2022/10/30 06:56:36;;;;;;;;;;;20.40;97.40;;;;;;5176760;27;19934;-68
2022/10/30 06:59:01;;;;;;;;;;;20.10;97.30;;;;;;5156481;27;20398;-67
2022/10/30 07:01:27;;;;;;;;;;;20.20;97.30;;;;;;5136631;27;19962;-68
2022/10/30 07:03:52;;;;;;;;;;;20.30;97.20;;;;;;5156423;27;19923;-68
2022/10/30 07:06:18;;;;;;;;;;;20.10;97.30;;;;;;5137362;27;19919;-67
2022/10/30 07:08:45;;;;;;;;;;;20.40;97.30;;;;;;5155225;27;19970;-68
2022/10/30 07:11:10;;;;;;;;;;;20.30;97.20;;;;;;5155311;27;20307;-67
2022/10/30 07:13:36;;;;;;;;;;;20.30;97.00;;;;;;5133049;27;19919;-67
2022/10/30 07:16:02;;;;;;;;;;;20.60;97.30;;;;;;5150730;27;19924;-68
2022/10/30 07:18:27;;;;;;;;;;;20.40;97.10;;;;;;5174933;27;19925;-66
2022/10/30 07:20:54;;;;;;;;;;;20.40;97.20;;;;;;5136958;27;20010;-67
2022/10/30 07:23:20;;;;;;;;;;;20.40;97.00;;;;;;5140184;27;19923;-67
2022/10/30 07:25:46;;;;;;;;;;;20.80;97.10;;;;;;5136682;27;19930;-67
2022/10/30 07:28:11;;;;;;;;;;;20.80;97.10;;;;;;5165347;27;20496;-67
2022/10/30 07:30:37;;;;;;;;;;;20.80;96.90;;;;;;5151814;27;19923;-67
2022/10/30 07:33:03;;;;;;;;;;;20.70;96.80;;;;;;5167529;27;19974;-67
2022/10/30 07:35:29;;;;;;;;;;;20.90;97.00;;;;;;5180157;27;20140;-67
2022/10/30 07:37:55;;;;;;;;;;;20.60;96.90;;;;;;5140951;27;20038;-66
2022/10/30 07:40:20;;;;;;;;;;;20.80;96.70;;;;;;5142323;27;20084;-67
2022/10/30 07:42:46;;;;;;;;;;;20.80;96.60;;;;;;5152866;27;20360;-67
2022/10/30 07:45:12;;;;;;;;;;;20.80;96.60;;;;;;5140435;27;19933;-67
2022/10/30 07:47:41;;;;;;;;;;;20.90;96.50;;;;;;5151508;27;19923;-69
2022/10/30 07:50:07;;;;;;;;;;;21.00;96.40;;;;;;5158556;27;19930;-67
2022/10/30 07:52:33;;;;;;;;;;;21.00;96.30;;;;;;5126785;27;20315;-67
2022/10/30 07:54:58;;;;;;;;;;;21.20;96.30;;;;;;5123384;27;20296;-67
2022/10/30 07:57:24;;;;;;;;;;;21.40;96.30;;;;;;5150682;27;19930;-67
2022/10/30 07:59:49;;;;;;;;;;;21.10;96.20;;;;;;5161494;27;20364;-68
2022/10/30 08:02:15;;;;;;;;;;;21.00;95.90;;;;;;5150178;27;19980;-69
2022/10/30 08:04:41;;;;;;;;;;;21.20;96.00;;;;;;5158647;27;19923;-68
2022/10/30 08:07:06;;;;;;;;;;;21.20;96.00;;;;;;5136351;27;19946;-68
2022/10/30 08:09:32;;;;;;;;;;;21.40;95.90;;;;;;5155610;27;19923;-68
2022/10/30 08:11:57;;;;;;;;;;;21.40;95.90;;;;;;5151720;27;19930;-69
2022/10/30 08:14:23;;;;;;;;;;;21.40;95.50;;;;;;5156870;27;19923;-69
2022/10/30 08:16:49;;;;;;;;;;;21.40;95.50;;;;;;5134606;27;20002;-69
2022/10/30 08:19:15;;;;;;;;;;;21.60;95.80;;;;;;5133380;27;19922;-68
2022/10/30 08:21:41;;;;;;;;;;;21.70;95.70;;;;;;5139033;27;19930;-68
2022/10/30 08:24:06;;;;;;;;;;;21.10;95.30;;;;;;5139836;27;19971;-68
2022/10/30 08:26:32;;;;;;;;;;;21.30;95.30;;;;;;5124616;27;20413;-68
2022/10/30 08:28:58;;;;;;;;;;;21.50;95.30;;;;;;5140004;27;19923;-68
2022/10/30 08:31:27;;;;;;;;;;;21.60;95.60;;;;;;5123056;27;19930;-68
2022/10/30 08:33:52;;;;;;;;;;;21.20;95.50;;;;;;5139447;27;19919;-68
2022/10/30 08:36:18;;;;;;;;;;;21.50;95.20;;;;;;5121874;27;19957;-68
2022/10/30 08:38:44;;;;;;;;;;;21.50;95.40;;;;;;5158087;27;19925;-69
2022/10/30 08:41:09;;;;;;;;;;;21.50;95.20;;;;;;5157575;27;20311;-70
2022/10/30 08:43:35;;;;;;;;;;;22.10;95.40;;;;;;5168362;27;19931;-70
2022/10/30 08:46:01;;;;;;;;;;;21.70;95.40;;;;;;5158114;27;19919;-72
2022/10/30 08:48:29;;;;;;;;;;;21.60;95.20;;;;;;5157870;27;19979;-73
2022/10/30 08:51:01;;;;;;;;;;;21.60;95.20;;;;;;5139933;27;20304;-72
2022/10/30 08:53:27;;;;;;;;;;;21.70;94.60;;;;;;5139148;27;19929;-71
2022/10/30 08:55:52;;;;;;;;;;;21.50;95.10;;;;;;5157139;27;20037;-69
2022/10/30 08:58:18;;;;;;;;;;;21.60;95.20;;;;;;5154107;27;19923;-71
2022/10/30 09:00:43;;;;;;;;;;;21.50;94.80;;;;;;5156374;27;20370;-71
2022/10/30 09:03:12;;;;;;;;;;;21.50;94.80;;;;;;5138708;27;19923;-71
2022/10/30 09:05:38;;;;;;;;;;;21.50;95.20;;;;;;5138771;27;19930;-72
2022/10/30 09:08:04;;;;;;;;;;;20.00;94.90;;;;;;5153492;27;19923;-72
2022/10/30 09:10:30;;;;;;;;;;;21.50;95.20;;;;;;5178083;27;19923;-71
2022/10/30 09:12:56;;;;;;;;;;;21.30;94.80;;;;;;5154222;27;19926;-72
2022/10/30 09:15:22;;;;;;;;;;;21.40;95.30;;;;;;5156909;27;20391;-72
2022/10/30 09:17:53;;;;;;;;;;;21.80;95.30;;;;;;5157743;27;19927;-71
2022/10/30 09:20:18;;;;;;;;;;;21.60;95.20;;;;;;5122010;27;20372;-74
2022/10/30 09:22:44;;;;;;;;;;;21.10;95.40;;;;;;5138980;27;19926;-70
2022/10/30 09:25:10;;;;;;;;;;;21.40;95.00;;;;;;5157262;27;19923;-72
2022/10/30 09:27:38;;;;;;;;;;;21.50;95.30;;;;;;5143024;27;20001;-71
2022/10/30 09:30:04;;;;;;;;;;;19.90;94.20;;;;;;5158937;27;19927;-72
2022/10/30 09:32:30;;;;;;;;;;;21.40;95.10;;;;;;5141939;27;20021;-71
2022/10/30 09:34:56;;;;;;;;;;;20.80;95.40;;;;;;5155786;27;19942;-71
2022/10/30 09:37:23;;;;;;;;;;;21.30;95.40;;;;;;5138113;27;19923;-71
2022/10/30 09:39:48;;;;;;;;;;;21.30;95.20;;;;;;5122904;27;19970;-72
2022/10/30 09:42:23;;;;;;;;;;;21.80;95.50;;;;;;5156771;27;19966;-74
2022/10/30 09:45:04;;;;;;;;;;;21.50;94.80;;;;;;5137805;27;19946;-71
2022/10/30 09:47:48;;;;;;;;;;;21.90;95.00;;;;;;5137891;27;19923;-73
2022/10/30 09:50:25;;;;;;;;;;;21.30;94.90;;;;;;5137680;27;20025;-72
2022/10/30 09:52:50;;;;;;;;;;;21.30;94.90;;;;;;5120755;27;19968;-72
2022/10/30 09:55:16;;;;;;;;;;;21.40;95.60;;;;;;5155283;27;19923;-71
2022/10/30 09:57:45;;;;;;;;;;;21.20;95.70;;;;;;5156114;27;20384;-71
2022/10/30 10:00:11;;;;;;;;;;;21.20;95.50;;;;;;5140745;27;20010;-71
2022/10/30 10:02:38;;;;;;;;;;;21.50;95.60;;;;;;5141470;27;20000;-71
2022/10/30 10:05:16;;;;;;;;;;;21.60;95.70;;;;;;5123952;27;19919;-71
2022/10/30 10:07:44;;;;;;;;;;;21.40;95.70;;;;;;5120219;27;19923;-72
2022/10/30 10:10:12;;;;;;;;;;;21.50;96.00;;;;;;5127328;27;19931;-72
2022/10/30 10:12:38;;;;;;;;;;;21.60;95.90;;;;;;5134148;27;19930;-70
2022/10/30 10:15:08;;;;;;;;;;;21.80;96.10;;;;;;5104092;27;19923;-71
2022/10/30 10:17:34;;;;;;;;;;;21.60;95.80;;;;;;5116395;27;19931;-72
2022/10/30 10:20:00;;;;;;;;;;;21.50;95.70;;;;;;5100016;27;19924;-71
2022/10/30 10:22:33;;;;;;;;;;;21.50;96.00;;;;;;5117162;27;19928;-72
2022/10/30 10:24:58;;;;;;;;;;;21.90;95.50;;;;;;5116153;27;19923;-72
2022/10/30 10:27:36;;;;;;;;;;;21.70;95.90;;;;;;5136479;27;19930;-70
2022/10/30 10:30:08;;;;;;;;;;;22.00;95.50;;;;;;5133676;27;19924;-72
2022/10/30 10:32:49;;;;;;;;;;;22.00;95.50;;;;;;5133777;27;19929;-72
2022/10/30 10:35:34;;;;;;;;;;;20.70;95.20;;;;;;5101741;27;19927;-73
2022/10/30 10:38:09;;;;;;;;;;;22.20;95.50;;;;;;5152957;27;19992;-70
2022/10/30 10:40:34;;;;;;;;;;;21.80;95.40;;;;;;5137104;27;19923;-70
2022/10/30 10:43:09;;;;;;;;;;;22.00;95.80;;;;;;5150609;27;20304;-70
2022/10/30 10:45:58;;;;;;;;;;;22.20;95.40;;;;;;5133594;27;19935;-70
2022/10/30 10:48:39;;;;;;;;;;;22.20;95.40;;;;;;5131532;27;19973;-70
2022/10/30 10:51:05;;;;;;;;;;;22.30;95.30;;;;;;5153857;27;19923;-70
2022/10/30 10:53:40;;;;;;;;;;;22.50;96.10;;;;;;5119955;27;19923;-71
2022/10/30 10:56:05;;;;;;;;;;;22.40;95.40;;;;;;5137149;27;19972;-70
2022/10/30 10:58:33;;;;;;;;;;;22.30;95.90;;;;;;5132363;27;20393;-70
2022/10/30 11:00:59;;;;;;;;;;;22.70;96.00;;;;;;5140362;27;19923;-70
2022/10/30 11:03:28;;;;;;;;;;;22.70;95.90;;;;;;5116518;27;19930;-71
2022/10/30 11:05:55;;;;;;;;;;;22.70;95.90;;;;;;5115924;27;19924;-70
2022/10/30 11:08:25;;;;;;;;;;;22.70;95.80;;;;;;5109412;27;19923;-70
2022/10/30 11:10:58;;;;;;;;;;;22.90;95.10;;;;;;5119625;28;20295;-70
2022/10/30 11:13:24;;;;;;;;;;;22.80;95.00;;;;;;5116484;28;19930;-71
2022/10/30 11:15:55;;;;;;;;;;;22.90;95.50;;;;;;5115796;28;19923;-70
2022/10/30 11:18:21;;;;;;;;;;;22.90;94.80;;;;;;5133195;27;19966;-70
2022/10/30 11:21:00;;;;;;;;;;;22.80;95.30;;;;;;5133388;28;20103;-71
2022/10/30 11:23:29;;;;;;;;;;;23.10;94.80;;;;;;5116183;28;19927;-71
2022/10/30 11:25:55;;;;;;;;;;;22.90;94.70;;;;;;5101196;28;20380;-71
2022/10/30 11:28:47;;;;;;;;;;;23.00;95.20;;;;;;5109697;27;19923;-70
2022/10/30 11:31:36;;;;;;;;;;;22.90;94.60;;;;;;5149754;27;20371;-71
2022/10/30 11:34:31;;;;;;;;;;;23.90;94.70;;;;;;5136171;27;19927;-70
2022/10/30 11:36:57;;;;;;;;;;;23.10;94.50;;;;;;5135922;27;19926;-71
2022/10/30 11:39:23;;;;;;;;;;;23.30;95.00;;;;;;5132005;28;19923;-71
2022/10/30 11:41:58;;;;;;;;;;;23.00;95.10;;;;;;5133065;28;19919;-71
2022/10/30 11:44:26;;;;;;;;;;;23.30;94.40;;;;;;5132339;28;20027;-70
2022/10/30 11:46:51;;;;;;;;;;;23.10;94.90;;;;;;5116210;28;19920;-71
2022/10/30 11:49:31;;;;;;;;;;;22.90;94.80;;;;;;5125394;28;20307;-70
2022/10/30 11:51:57;;;;;;;;;;;23.00;94.30;;;;;;5142089;27;20332;-72
2022/10/30 11:54:22;;;;;;;;;;;23.30;94.90;;;;;;5133110;28;19923;-71
2022/10/30 11:56:49;;;;;;;;;;;22.90;94.70;;;;;;5132582;27;19931;-71
2022/10/30 11:59:18;;;;;;;;;;;23.20;94.80;;;;;;5126019;27;20468;-71
2022/10/30 12:01:56;;;;;;;;;;;23.30;94.60;;;;;;5152900;27;19923;-71
2022/10/30 12:04:22;;;;;;;;;;;23.50;94.50;;;;;;5121790;27;20006;-71
2022/10/30 12:06:50;;;;;;;;;;;23.40;94.40;;;;;;5115795;27;19923;-72
2022/10/30 12:09:19;;;;;;;;;;;23.50;94.40;;;;;;5144064;27;19930;-71
2022/10/30 12:11:45;;;;;;;;;;;23.50;93.70;;;;;;5119384;27;19933;-71
2022/10/30 12:14:18;;;;;;;;;;;23.80;94.40;;;;;;5118662;27;20372;-70
2022/10/30 12:16:44;;;;;;;;;;;24.40;93.10;;;;;;5120763;27;19923;-71
2022/10/30 12:19:14;;;;;;;;;;;24.50;93.00;;;;;;5135323;27;19919;-72
2022/10/30 12:21:46;;;;;;;;;;;24.70;92.50;;;;;;5134348;27;19931;-73
2022/10/30 12:24:15;;;;;;;;;;;24.80;91.70;;;;;;5122540;27;20388;-72
2022/10/30 12:26:40;;;;;;;;;;;24.30;92.20;;;;;;5123133;27;19963;-72
2022/10/30 12:29:07;;;;;;;;;;;24.40;92.40;;;;;;5139979;27;19923;-69
2022/10/30 12:31:34;;;;;;;;;;;24.20;92.70;;;;;;5122213;27;19937;-69
2022/10/30 12:34:18;;;;;;;;;;;23.90;92.90;;;;;;5122443;27;19954;-70
2022/10/30 12:36:46;;;;;;;;;;;23.70;92.30;;;;;;5139515;27;20025;-72
2022/10/30 12:39:13;;;;;;;;;;;23.90;93.20;;;;;;5122455;27;20055;-71
2022/10/30 12:41:39;;;;;;;;;;;23.70;93.30;;;;;;5140138;27;20265;-72
2022/10/30 12:44:22;;;;;;;;;;;23.70;93.40;;;;;;5122339;27;20730;-71
2022/10/30 12:46:55;;;;;;;;;;;23.40;92.80;;;;;;5122268;27;19923;-70
2022/10/30 12:49:27;;;;;;;;;;;23.50;93.10;;;;;;5133291;27;20388;-71
2022/10/30 12:52:11;;;;;;;;;;;23.50;93.30;;;;;;5139044;27;19948;-71
2022/10/30 12:54:57;;;;;;;;;;;23.20;93.30;;;;;;5139438;27;19923;-71
2022/10/30 12:57:24;;;;;;;;;;;23.10;93.40;;;;;;5121907;27;19923;-71
2022/10/30 12:59:50;;;;;;;;;;;23.10;94.20;;;;;;5130516;27;19930;-71
2022/10/30 13:02:15;;;;;;;;;;;22.90;94.20;;;;;;5139704;27;20015;-72
2022/10/30 13:04:43;;;;;;;;;;;22.90;94.70;;;;;;5138847;27;20333;-71
2022/10/30 13:07:12;;;;;;;;;;;22.90;94.70;;;;;;5142662;27;19930;-70
2022/10/30 13:09:39;;;;;;;;;;;22.90;94.80;;;;;;5141698;27;20321;-71
2022/10/30 13:12:07;;;;;;;;;;;23.20;94.80;;;;;;5142159;27;19938;-70
2022/10/30 13:14:36;;;;;;;;;;;22.80;94.80;;;;;;5159089;27;19923;-70
2022/10/30 13:17:01;;;;;;;;;;;22.60;94.30;;;;;;5134440;27;20388;-68
2022/10/30 13:19:27;;;;;;;;;;;22.80;94.90;;;;;;5138526;27;19923;-70
2022/10/30 13:22:01;;;;;;;;;;;22.90;94.90;;;;;;5138826;27;19923;-69
2022/10/30 13:24:41;;;;;;;;;;;22.50;94.40;;;;;;5132976;27;20277;-69
2022/10/30 13:27:09;;;;;;;;;;;22.60;94.50;;;;;;5121369;27;20443;-69
2022/10/30 13:29:53;;;;;;;;;;;22.50;95.10;;;;;;5138417;27;20010;-69
2022/10/30 13:32:37;;;;;;;;;;;22.60;94.70;;;;;;5157133;27;19980;-68
2022/10/30 13:35:15;;;;;;;;;;;22.20;94.80;;;;;;5156743;27;19930;-69
2022/10/30 13:37:42;;;;;;;;;;;22.20;94.80;;;;;;5138448;27;20060;-69
2022/10/30 13:40:27;;;;;;;;;;;22.30;95.40;;;;;;5131086;27;20292;-72
2022/10/30 13:42:58;;;;;;;;;;;22.30;94.90;;;;;;5152750;27;19948;-71
2022/10/30 13:45:23;;;;;;;;;;;22.40;94.90;;;;;;5124630;27;20265;-70
2022/10/30 13:48:03;;;;;;;;;;;22.60;95.40;;;;;;5158746;27;19926;-69
2022/10/30 13:50:29;;;;;;;;;;;22.50;95.00;;;;;;5146102;27;19948;-68
2022/10/30 13:52:55;;;;;;;;;;;22.50;95.60;;;;;;5158898;27;19926;-70
2022/10/30 13:55:21;;;;;;;;;;;22.40;95.60;;;;;;5159030;27;19929;-70
2022/10/30 13:57:50;;;;;;;;;;;22.40;95.70;;;;;;5141435;27;19931;-70
2022/10/30 14:00:16;;;;;;;;;;;22.90;95.70;;;;;;5159048;27;19926;-69
2022/10/30 14:02:54;;;;;;;;;;;22.30;95.60;;;;;;5141485;27;19929;-69
2022/10/30 14:05:33;;;;;;;;;;;22.60;95.10;;;;;;5158292;27;20742;-68
2022/10/30 14:08:02;;;;;;;;;;;22.40;95.00;;;;;;5157774;27;19930;-68
2022/10/30 14:10:38;;;;;;;;;;;23.90;96.00;;;;;;5177129;27;19923;-68
2022/10/30 14:13:13;;;;;;;;;;;22.30;95.00;;;;;;5138211;27;19929;-68
2022/10/30 14:15:42;;;;;;;;;;;22.40;95.10;;;;;;5137326;27;19923;-68
2022/10/30 14:18:11;;;;;;;;;;;22.40;95.10;;;;;;5156381;27;20431;-68
2022/10/30 14:20:45;;;;;;;;;;;22.50;95.10;;;;;;5137912;27;19975;-68